Time;durP1;ratioP1;P1;durP2;ratioP2;P2;SDS_P1;SDS_P2;PMS_P1;PMS_P2;Temp;Humidity;BMP_temperature;BMP_pressure;BME280_temperature;BME280_humidity;BME280_pressure;Samples;Min_cycle;Max_cycle;Signal;HPM_P1;HPM_P2
2021/10/11 00:00:40;;;;;;;19.65;10.77;;;;;;;;;;5033560;28;20029;-82
2021/10/11 00:03:06;;;;;;;19.02;10.07;;;;;;;;;;5038785;28;20059;-84
2021/10/11 00:05:32;;;;;;;18.10;10.15;;;;;;;;;;5045534;28;20029;-85
2021/10/11 00:07:58;;;;;;;21.77;11.23;;;;;;;;;;5036797;28;20106;-82
2021/10/11 00:10:24;;;;;;;17.88;11.35;;;;;;;;;;5046431;28;20064;-85
2021/10/11 00:12:51;;;;;;;21.25;10.90;;;;;;;;;;5033751;28;20530;-84
2021/10/11 00:15:18;;;;;;;20.13;10.45;;;;;;;;;;5049501;28;20021;-86
2021/10/11 00:17:44;;;;;;;19.52;10.57;;;;;;;;;;5027932;28;20486;-85
2021/10/11 00:20:11;;;;;;;20.33;10.52;;;;;;;;;;5034408;28;20075;-82
2021/10/11 00:22:37;;;;;;;21.67;10.68;;;;;;;;;;5030047;28;20029;-85
2021/10/11 00:25:04;;;;;;;16.85;10.35;;;;;;;;;;5027982;28;20483;-84
2021/10/11 00:27:31;;;;;;;21.02;10.52;;;;;;;;;;5047431;28;20024;-86
2021/10/11 00:29:57;;;;;;;17.85;9.00;;;;;;;;;;5051276;28;20029;-90
2021/10/11 00:32:23;;;;;;;18.80;9.80;;;;;;;;;;5054380;28;20021;-83
2021/10/11 00:34:48;;;;;;;17.05;10.63;;;;;;;;;;5032704;28;20047;-86
2021/10/11 00:37:14;;;;;;;17.85;10.07;;;;;;;;;;5037292;28;20107;-86
2021/10/11 00:39:40;;;;;;;18.90;9.88;;;;;;;;;;5032373;28;20457;-82
2021/10/11 00:42:06;;;;;;;16.75;9.52;;;;;;;;;;5053509;28;20032;-84
2021/10/11 00:44:32;;;;;;;18.00;10.35;;;;;;;;;;5036334;28;20382;-85
2021/10/11 00:46:58;;;;;;;18.55;9.70;;;;;;;;;;5036777;28;20119;-84
2021/10/11 00:49:24;;;;;;;20.77;10.20;;;;;;;;;;5027357;28;20059;-82
2021/10/11 00:51:50;;;;;;;17.42;9.90;;;;;;;;;;5030662;28;20028;-84
2021/10/11 00:54:16;;;;;;;18.17;9.80;;;;;;;;;;5034435;28;20079;-85
2021/10/11 00:56:42;;;;;;;19.33;10.77;;;;;;;;;;5027954;28;20028;-84
2021/10/11 00:59:08;;;;;;;16.65;9.98;;;;;;;;;;5033389;28;20036;-85
2021/10/11 01:01:34;;;;;;;18.08;9.18;;;;;;;;;;5034587;28;20032;-84
2021/10/11 01:04:04;;;;;;;15.57;9.77;;;;;;;;;;5049414;28;20085;-85
2021/10/11 01:06:31;;;;;;;15.77;9.03;;;;;;;;;;5032037;28;20028;-85
2021/10/11 01:08:57;;;;;;;17.08;9.82;;;;;;;;;;5048812;28;20087;-85
2021/10/11 01:11:32;;;;;;;15.32;9.55;;;;;;;;;;5033670;28;20335;-86
2021/10/11 01:13:58;;;;;;;16.45;9.25;;;;;;;;;;5033688;28;20086;-88
2021/10/11 01:16:24;;;;;;;16.63;8.88;;;;;;;;;;5033667;28;20052;-87
2021/10/11 01:18:51;;;;;;;16.92;9.20;;;;;;;;;;5031356;28;20021;-85
2021/10/11 01:21:19;;;;;;;18.83;9.93;;;;;;;;;;5035991;28;20047;-86
2021/10/11 01:23:45;;;;;;;16.60;10.05;;;;;;;;;;5058162;28;20024;-86
2021/10/11 01:26:14;;;;;;;19.63;9.82;;;;;;;;;;5048684;28;20037;-84
2021/10/11 01:28:46;;;;;;;19.27;9.13;;;;;;;;;;5041514;28;20029;-88
2021/10/11 01:31:12;;;;;;;16.73;9.38;;;;;;;;;;5030960;28;20041;-84
2021/10/11 01:33:40;;;;;;;16.35;8.90;;;;;;;;;;5036128;28;20021;-87
2021/10/11 01:36:06;;;;;;;17.15;9.63;;;;;;;;;;5037059;28;20429;-87
2021/10/11 01:38:33;;;;;;;13.75;8.80;;;;;;;;;;5033987;28;20028;-84
2021/10/11 01:41:01;;;;;;;17.05;8.95;;;;;;;;;;5049499;28;20038;-86
2021/10/11 01:43:27;;;;;;;16.48;9.20;;;;;;;;;;5036657;28;20501;-87
2021/10/11 01:45:53;;;;;;;19.27;9.68;;;;;;;;;;5037995;28;20131;-85
2021/10/11 01:48:19;;;;;;;19.65;11.00;;;;;;;;;;5035150;28;20060;-81
2021/10/11 01:50:45;;;;;;;17.65;9.15;;;;;;;;;;5034615;28;20092;-85
2021/10/11 01:53:11;;;;;;;18.02;9.88;;;;;;;;;;5053635;28;20033;-87
2021/10/11 01:55:37;;;;;;;16.17;9.43;;;;;;;;;;5032354;28;20028;-83
2021/10/11 01:58:09;;;;;;;19.55;9.38;;;;;;;;;;5033738;28;20119;-84
2021/10/11 02:00:35;;;;;;;17.35;9.80;;;;;;;;;;5030569;28;20028;-83
2021/10/11 02:03:07;;;;;;;16.25;9.30;;;;;;;;;;5026618;28;20477;-83
2021/10/11 02:05:33;;;;;;;17.92;10.15;;;;;;;;;;5033317;28;21833;-84
2021/10/11 02:08:02;;;;;;;15.50;9.57;;;;;;;;;;5036524;28;20065;-84
2021/10/11 02:10:28;;;;;;;21.63;10.57;;;;;;;;;;5034274;28;20037;-82
2021/10/11 02:12:54;;;;;;;18.13;9.90;;;;;;;;;;5039902;28;20029;-83
2021/10/11 02:15:20;;;;;;;18.63;9.85;;;;;;;;;;5032864;28;20093;-82
2021/10/11 02:17:46;;;;;;;15.25;9.05;;;;;;;;;;5035783;28;20017;-83
2021/10/11 02:20:12;;;;;;;17.05;9.38;;;;;;;;;;5027952;28;20040;-86
2021/10/11 02:22:38;;;;;;;16.85;9.20;;;;;;;;;;5030834;28;20025;-84
2021/10/11 02:25:04;;;;;;;16.85;9.85;;;;;;;;;;5035220;28;20067;-83
2021/10/11 02:27:30;;;;;;;20.30;10.00;;;;;;;;;;5032854;28;20432;-88
2021/10/11 02:30:02;;;;;;;16.35;9.88;;;;;;;;;;5024854;28;20486;-83
2021/10/11 02:32:28;;;;;;;17.90;9.63;;;;;;;;;;5034032;28;20025;-86
2021/10/11 02:34:54;;;;;;;14.93;9.10;;;;;;;;;;5033644;28;20067;-85
2021/10/11 02:37:20;;;;;;;14.80;9.30;;;;;;;;;;5045228;28;20094;-86
2021/10/11 02:39:52;;;;;;;15.48;9.18;;;6.30;99.90;;;;;;5032843;28;20040;-85
2021/10/11 02:42:20;;;;;;;26.40;9.93;;;6.30;99.90;;;;;;5036677;28;20036;-85
2021/10/11 02:44:46;;;;;;;15.50;9.38;;;;;;;;;;5032966;28;20288;-86
2021/10/11 02:47:13;;;;;;;15.20;8.18;;;6.30;99.90;;;;;;5036999;28;20029;-83
2021/10/11 02:49:39;;;;;;;14.82;9.05;;;6.30;99.90;;;;;;5031975;28;20044;-86
2021/10/11 02:52:05;;;;;;;17.15;8.48;;;;;;;;;;5036848;28;20483;-86
2021/10/11 02:54:31;;;;;;;17.27;9.07;;;;;;;;;;5029300;28;20025;-83
2021/10/11 02:56:57;;;;;;;17.42;9.10;;;;;;;;;;5037762;28;20029;-85
2021/10/11 02:59:23;;;;;;;20.80;9.30;;;;;;;;;;5036597;28;20048;-84
2021/10/11 03:01:49;;;;;;;14.50;8.38;;;;;;;;;;5034091;28;20033;-83
2021/10/11 03:04:15;;;;;;;14.52;8.85;;;;;;;;;;5037703;28;20109;-84
2021/10/11 03:06:43;;;;;;;17.10;9.35;;;;;;;;;;5037530;28;20053;-84
2021/10/11 03:09:12;;;;;;;14.40;8.35;;;;;;;;;;5036753;28;20647;-82
2021/10/11 03:11:38;;;;;;;18.10;9.13;;;;;;;;;;5039653;28;20067;-84
2021/10/11 03:14:04;;;;;;;13.23;8.73;;;;;;;;;;5041327;28;20022;-85
2021/10/11 03:16:30;;;;;;;16.05;8.70;;;;;;;;;;5037724;28;20057;-82
2021/10/11 03:18:59;;;;;;;16.88;9.00;;;;;;;;;;5037418;28;20029;-87
2021/10/11 03:21:34;;;;;;;16.25;9.23;;;;;;;;;;5033179;28;20052;-87
2021/10/11 03:24:09;;;;;;;18.55;10.00;;;;;;;;;;5032042;28;20059;-83
2021/10/11 03:26:35;;;;;;;17.75;10.02;;;;;;;;;;5036466;28;20037;-83
2021/10/11 03:29:04;;;;;;;18.38;10.48;;;;;;;;;;5036117;28;20387;-85
2021/10/11 03:31:33;;;;;;;18.67;9.63;;;;;;;;;;5035162;28;20218;-87
2021/10/11 03:33:59;;;;;;;18.55;10.00;;;;;;;;;;5032996;28;20037;-89
2021/10/11 03:36:25;;;;;;;17.27;9.60;;;;;;;;;;5034673;28;20033;-84
2021/10/11 03:38:53;;;;;;;14.77;9.45;;;;;;;;;;5029093;28;20041;-88
2021/10/11 03:41:22;;;;;;;18.75;10.63;;;;;;;;;;5032422;28;20028;-83
2021/10/11 03:43:48;;;;;;;17.75;10.38;;;;;;;;;;5032231;28;20028;-84
2021/10/11 03:46:17;;;;;;;20.27;10.23;;;;;;;;;;5037564;28;20032;-85
2021/10/11 03:48:43;;;;;;;19.00;9.65;;;;;;;;;;5033345;28;20038;-87
2021/10/11 03:51:11;;;;;;;19.00;9.30;;;;;;;;;;5033092;28;20029;-85
2021/10/11 03:53:38;;;;;;;19.75;10.13;;;;;;;;;;5031883;28;20052;-83
2021/10/11 03:56:04;;;;;;;17.70;9.63;;;;;;;;;;5036323;28;20032;-87
2021/10/11 03:58:30;;;;;;;20.92;10.20;;;;;;;;;;5038127;28;20079;-85
2021/10/11 04:00:56;;;;;;;17.15;10.18;;;;;;;;;;5031492;28;20036;-85
2021/10/11 04:03:24;;;;;;;21.35;10.40;;;;;;;;;;5035209;28;20041;-86
2021/10/11 04:06:00;;;;;;;19.75;10.20;;;;;;;;;;5031720;28;20026;-86
2021/10/11 04:08:42;;;;;;;16.65;9.15;;;;;;;;;;5036653;28;20025;-87
2021/10/11 04:11:21;;;;;;;14.30;8.43;;;;;;;;;;5029324;28;20041;-85
2021/10/11 04:13:48;;;;;;;18.48;9.30;;;;;;;;;;5029979;28;20033;-86
2021/10/11 04:16:16;;;;;;;16.27;9.35;;;;;;;;;;5029874;28;20033;-84
2021/10/11 04:18:51;;;;;;;16.90;9.35;;;;;;;;;;5027567;28;20032;-85
2021/10/11 04:21:20;;;;;;;16.52;9.27;;;;;;;;;;5035544;28;20040;-88
2021/10/11 04:23:48;;;;;;;15.05;8.95;;;;;;;;;;5055380;23;20490;-86
2021/10/11 04:26:15;;;;;;;18.17;8.73;;;;;;;;;;5033880;28;20029;-86
2021/10/11 04:28:41;;;;;;;14.93;8.55;;;;;;;;;;5033857;28;20478;-86
2021/10/11 04:31:07;;;;;;;14.63;9.15;;;;;;;;;;5032926;28;20024;-88
2021/10/11 04:33:33;;;;;;;15.13;9.45;;;;;;;;;;5035915;28;20398;-84
2021/10/11 04:36:05;;;;;;;14.73;8.82;;;;;;;;;;5048177;28;20040;-87
2021/10/11 04:38:34;;;;;;;17.38;9.23;;;;;;;;;;5030782;28;20035;-86
2021/10/11 04:41:00;;;;;;;17.02;8.80;;;;;;;;;;5053779;28;20033;-83
2021/10/11 04:43:35;;;;;;;15.20;8.65;;;;;;;;;;5039116;28;20029;-85
2021/10/11 04:46:04;;;;;;;18.20;9.75;;;;;;;;;;5047741;28;20036;-89
2021/10/11 04:48:35;;;;;;;20.77;10.10;;;;;;;;;;5030766;28;20037;-88
2021/10/11 04:51:01;;;;;;;16.40;9.05;;;;;;;;;;5032541;28;20033;-84
2021/10/11 04:53:30;;;;;;;14.93;8.75;;;;;;;;;;5046323;28;20036;-86
2021/10/11 04:56:05;;;;;;;15.82;8.93;;;;;;;;;;5034139;28;20035;-86
2021/10/11 04:58:31;;;;;;;16.65;9.00;;;;;;;;;;5031606;28;21680;-88
2021/10/11 05:01:00;;;;;;;18.75;9.00;;;;;;;;;;5035537;28;20036;-82
2021/10/11 05:03:29;;;;;;;22.15;11.02;;;;;;;;;;5035202;28;20029;-82
2021/10/11 05:05:57;;;;;;;18.25;9.85;;;;;;;;;;5039084;28;20471;-86
2021/10/11 05:08:23;;;;;;;18.58;9.60;;;;;;;;;;5033719;28;20112;-83
2021/10/11 05:10:49;;;;;;;18.25;8.98;;;;;;;;;;5036029;28;20033;-87
2021/10/11 05:13:15;;;;;;;19.60;10.23;;;;;;;;;;5036059;28;20169;-85
2021/10/11 05:15:44;;;;;;;18.02;9.45;;;;;;;;;;5033593;28;20029;-86
2021/10/11 05:18:13;;;;;;;18.33;10.20;;;;;;;;;;5044406;28;20032;-85
2021/10/11 05:20:46;;;;;;;15.90;8.82;;;;;;;;;;5038946;28;20479;-87
2021/10/11 05:23:36;;;;;;;22.48;9.65;;;;;;;;;;5035400;28;20057;-84
2021/10/11 05:26:06;;;;;;;15.90;9.50;;;;;;;;;;5053106;28;20054;-87
2021/10/11 05:28:32;;;;;;;17.58;9.98;;;;;;;;;;5040603;28;20159;-86
2021/10/11 05:31:01;;;;;;;19.55;10.10;;;;;;;;;;5049801;28;20129;-85
2021/10/11 05:33:34;;;;;;;21.17;11.77;;;;;;;;;;5039705;28;20025;-88
2021/10/11 05:36:04;;;;;;;23.10;11.77;;;;;;;;;;5051767;28;20029;-87
2021/10/11 05:38:37;;;;;;;22.45;11.73;;;;;;;;;;5054140;28;20021;-85
2021/10/11 05:41:04;;;;;;;24.05;13.57;;;;;;;;;;5037970;28;20056;-85
2021/10/11 05:43:33;;;;;;;21.75;13.30;;;;;;;;;;5040573;28;20074;-85
2021/10/11 05:45:59;;;;;;;22.98;12.70;;;;;;;;;;5041275;28;20025;-84
2021/10/11 05:48:25;;;;;;;21.50;12.82;;;;;;;;;;5037063;28;20040;-89
2021/10/11 05:50:54;;;;;;;21.70;11.98;;;;;;;;;;5051898;28;20029;-83
2021/10/11 05:53:23;;;;;;;23.92;13.30;;;;;;;;;;5050377;28;20025;-87
2021/10/11 05:55:52;;;;;;;21.20;12.27;;;;;;;;;;5052429;28;20453;-86
2021/10/11 05:58:25;;;;;;;21.10;10.35;;;;;;;;;;5049406;28;20036;-86
2021/10/11 06:00:54;;;;;;;20.73;11.68;;;;;;;;;;5034888;28;20109;-84
2021/10/11 06:03:23;;;;;;;25.45;11.80;;;;;;;;;;5043674;28;20128;-88
2021/10/11 06:05:52;;;;;;;28.67;13.18;;;;;;;;;;5033197;28;20045;-86
2021/10/11 06:08:19;;;;;;;23.58;13.30;;;;;;;;;;5037109;28;20030;-89
2021/10/11 06:10:45;;;;;;;24.45;12.90;;;;;;;;;;5049678;28;20036;-86
2021/10/11 06:13:18;;;;;;;22.77;12.38;;;;;;;;;;5048723;28;20037;-87
2021/10/11 06:15:45;;;;;;;27.30;13.23;;;;;;;;;;5041923;28;20021;-85
2021/10/11 06:18:11;;;;;;;24.27;12.95;;;;;;;;;;5044302;28;20075;-86
2021/10/11 06:20:38;;;;;;;23.05;11.90;;;;;;;;;;5039599;28;20061;-87
2021/10/11 06:23:04;;;;;;;23.88;11.48;;;;;;;;;;5042067;28;20087;-85
2021/10/11 06:25:30;;;;;;;18.80;10.35;;;;;;;;;;5056261;28;20033;-85
2021/10/11 06:27:56;;;;;;;19.63;9.95;;;;;;;;;;5047623;28;20029;-82
2021/10/11 06:30:22;;;;;;;19.77;10.18;;;;;;;;;;5062912;28;20025;-84
2021/10/11 06:32:48;;;;;;;19.42;10.80;;;;;;;;;;5059082;28;20036;-86
2021/10/11 06:35:14;;;;;;;20.63;9.98;;;;;;;;;;5056224;28;20629;-83
2021/10/11 06:37:40;;;;;;;16.95;9.95;;;;;;;;;;5040080;28;20025;-85
2021/10/11 06:40:07;;;;;;;18.35;10.57;;;;;;;;;;5055082;28;20029;-84
2021/10/11 06:42:33;;;;;;;23.52;10.40;;;;;;;;;;5047386;28;20032;-84
2021/10/11 06:45:02;;;;;;;21.60;10.82;;;;;;;;;;5060965;28;20052;-84
2021/10/11 06:47:31;;;;;;;25.17;11.13;;;;;;;;;;5046508;28;20090;-84
2021/10/11 06:49:57;;;;;;;23.67;11.52;;;;;;;;;;5036597;28;20128;-84
2021/10/11 06:52:23;;;;;;;30.85;11.60;;;;;;;;;;5041448;28;20029;-85
2021/10/11 06:54:49;;;;;;;27.27;13.00;;;;;;;;;;5045238;28;20051;-85
2021/10/11 06:57:15;;;;;;;34.20;13.75;;;;;;;;;;5045237;28;20029;-86
2021/10/11 06:59:42;;;;;;;22.52;12.25;;;;;;;;;;5043910;28;20647;-83
2021/10/11 07:02:08;;;;;;;24.60;12.63;;;;;;;;;;5055228;28;20036;-86
2021/10/11 07:04:34;;;;;;;27.17;13.90;;;;;;;;;;5045930;28;20033;-86
2021/10/11 07:07:00;;;;;;;23.85;11.73;;;;;;;;;;5044533;28;20028;-85
2021/10/11 07:09:26;;;;;;;27.95;12.07;;;;;;;;;;5046150;28;20029;-84
2021/10/11 07:11:53;;;;;;;24.80;12.65;;;;;;;;;;5063654;28;20044;-84
2021/10/11 07:14:19;;;;;;;22.63;11.38;;;;;;;;;;5065984;28;20028;-84
2021/10/11 07:16:46;;;;;;;23.63;12.27;;;;;;;;;;5054566;28;20045;-86
2021/10/11 07:19:15;;;;;;;21.33;11.20;;;;;;;;;;5053977;28;20036;-82
2021/10/11 07:21:44;;;;;;;26.00;11.43;;;;;;;;;;5050868;28;20029;-84
2021/10/11 07:24:15;;;;;;;24.05;12.43;;;;;;;;;;5054583;28;20033;-83
2021/10/11 07:26:44;;;;;;;24.42;11.85;;;;;;;;;;5067687;28;20111;-83
2021/10/11 07:29:10;;;;;;;23.55;12.02;;;;;;;;;;5048981;28;20426;-82
2021/10/11 07:31:36;;;;;;;19.45;10.93;;;;;;;;;;5054363;28;20029;-88
2021/10/11 07:34:05;;;;;;;28.92;12.70;;;;;;;;;;5052272;28;20041;-85
2021/10/11 07:36:31;;;;;;;25.58;12.25;;;;;;;;;;5057287;28;20033;-86
2021/10/11 07:38:57;;;;;;;25.00;12.27;;;;;;;;;;5059301;28;20032;-85
2021/10/11 07:41:27;;;;;;;25.40;11.85;;;;;;;;;;5054843;28;20025;-89
2021/10/11 07:43:55;;;;;;;25.08;12.15;;;;;;;;;;5069702;28;20036;-85
2021/10/11 07:46:21;;;;;;;21.65;11.88;;;;;;;;;;5052471;28;20033;-85
2021/10/11 07:48:47;;;;;;;24.95;12.15;;;;;;;;;;5049327;28;20040;-83
2021/10/11 07:51:13;;;;;;;23.52;11.52;;;;;;;;;;5067816;28;20029;-85
2021/10/11 07:53:40;;;;;;;26.05;11.25;;;;;;;;;;5049898;28;20033;-88
2021/10/11 07:56:07;;;;;;;24.42;12.30;;;;;;;;;;5059073;28;20021;-86
2021/10/11 07:58:33;;;;;;;22.02;12.30;;;;;;;;;;5039111;28;20026;-88
2021/10/11 08:00:59;;;;;;;26.98;12.95;;;;;;;;;;5060115;28;20299;-88
2021/10/11 08:03:28;;;;;;;29.30;12.90;;;;;;;;;;5046820;28;20032;-87
2021/10/11 08:05:59;;;;;;;24.05;12.30;;;;;;;;;;5049442;28;20103;-88
2021/10/11 08:08:25;;;;;;;28.55;13.00;;;;;;;;;;5062860;28;20068;-87
2021/10/11 08:10:57;;;;;;;27.23;13.27;;;;;;;;;;5045063;28;20037;-85
2021/10/11 08:13:23;;;;;;;28.20;13.68;;;;;;;;;;5042530;28;20026;-87
2021/10/11 08:15:50;;;;;;;34.35;12.18;;;;;;;;;;5043806;28;20026;-87
2021/10/11 08:18:16;;;;;;;32.65;14.23;;;;;;;;;;5044530;28;20033;-89
2021/10/11 08:20:43;;;;;;;35.72;14.48;;;;;;;;;;5052183;28;20124;-88
2021/10/11 08:23:10;;;;;;;33.10;13.00;;;;;;;;;;5063481;28;20044;-87
2021/10/11 08:25:36;;;;;;;34.95;13.30;;;;;;;;;;5061240;28;20029;-85
2021/10/11 08:28:03;;;;;;;32.85;13.98;;;;;;;;;;5048463;28;20097;-85
2021/10/11 08:30:32;;;;;;;31.35;13.70;;;;;;;;;;5044821;28;20041;-85
2021/10/11 08:32:58;;;;;;;29.92;13.07;;;;;;;;;;5045133;28;20941;-84
2021/10/11 08:35:24;;;;;;;31.83;13.98;;;;;;;;;;5047415;28;20120;-84
2021/10/11 08:37:53;;;;;;;37.85;15.30;;;;;;;;;;5061357;28;20033;-84
2021/10/11 08:40:22;;;;;;;29.05;13.88;;;;;;;;;;5060266;28;20033;-88
2021/10/11 08:42:50;;;;;;;30.75;14.50;;;;;;;;;;5046951;28;20036;-85
2021/10/11 08:45:16;;;;;;;35.22;13.73;;;;;;;;;;5049254;28;20081;-87
2021/10/11 08:47:42;;;;;;;30.77;13.68;;;;;;;;;;5059842;28;20033;-90
2021/10/11 08:50:11;;;;;;;27.73;13.60;;;;;;;;;;5063950;28;20099;-87
2021/10/11 08:52:40;;;;;;;24.77;14.05;;;;;;;;;;5044202;28;20047;-87
2021/10/11 08:55:07;;;;;;;30.13;14.27;;;;;;;;;;5043770;28;20074;-86
2021/10/11 08:57:34;;;;;;;28.42;14.15;;;;;;;;;;5041925;28;20028;-86
2021/10/11 09:00:29;;;;;;;23.85;12.65;;;;;;;;;;5042417;28;20041;-88
2021/10/11 09:02:57;;;;;;;29.55;13.65;;;;;;;;;;5045932;28;20087;-84
2021/10/11 09:05:32;;;;;;;26.25;13.23;;;;;;;;;;5042084;28;20047;-87
2021/10/11 09:08:01;;;;;;;22.98;13.25;;;;;;;;;;5046489;28;20040;-85
2021/10/11 09:10:27;;;;;;;25.77;13.35;;;;;;;;;;5048761;28;20086;-85
2021/10/11 09:12:54;;;;;;;23.27;13.00;;;;;;;;;;5045824;28;20498;-86
2021/10/11 09:15:20;;;;;;;22.05;13.10;;;;;;;;;;5043148;28;20028;-88
2021/10/11 09:17:53;;;;;;;25.33;13.18;;;;;;;;;;5049172;28;20029;-87
2021/10/11 09:20:21;;;;;;;31.98;14.75;;;;;;;;;;5033866;28;20071;-86
2021/10/11 09:22:48;;;;;;;24.83;13.05;;;;;;;;;;5054182;28;20059;-86
2021/10/11 09:25:14;;;;;;;25.83;13.10;;;;;;;;;;5035730;28;20482;-85
2021/10/11 09:28:00;;;;;;;27.90;13.63;;;;;;;;;;5050610;28;20029;-84
2021/10/11 09:30:27;;;;;;;23.10;12.45;;;;;;;;;;5049734;28;20091;-83
2021/10/11 09:33:06;;;;;;;21.88;12.55;;;;;;;;;;5053377;28;20025;-86
2021/10/11 09:35:33;;;;;;;26.45;13.23;;;;;;;;;;5054536;28;20021;-86
2021/10/11 09:37:59;;;;;;;23.52;13.25;;;;;;;;;;5043940;28;20112;-87
2021/10/11 09:40:25;;;;;;;25.17;13.02;;;;;;;;;;5038565;28;20044;-86
2021/10/11 09:42:52;;;;;;;23.27;13.77;;;;;;;;;;5042381;28;20056;-86
2021/10/11 09:45:24;;;;;;;24.92;14.30;;;;;;;;;;5040022;28;20033;-86
2021/10/11 09:47:51;;;;;;;26.92;13.13;;;;;;;;;;5033082;28;20037;-86
2021/10/11 09:50:21;;;;;;;40.13;17.75;;;;;;;;;;5041247;28;20045;-86
2021/10/11 09:52:47;;;;;;;33.75;15.00;;;;;;;;;;5036161;28;20479;-85
2021/10/11 09:55:15;;;;;;;25.95;13.52;;;;;;;;;;5037957;28;20037;-84
2021/10/11 09:57:41;;;;;;;31.13;14.23;;;;;;;;;;5040066;28;20025;-83
2021/10/11 10:00:11;;;;;;;32.00;14.77;;;;;;;;;;5054568;28;20025;-83
2021/10/11 10:02:43;;;;;;;30.27;14.30;;;;;;;;;;5057232;28;20044;-84
2021/10/11 10:05:22;;;;;;;27.08;14.15;;;;;;;;;;5050925;28;20098;-87
2021/10/11 10:07:52;;;;;;;30.38;15.60;;;;;;;;;;5053745;28;20055;-84
2021/10/11 10:10:23;;;;;;;30.73;14.50;;;;;;;;;;5052499;28;20033;-84
2021/10/11 10:12:50;;;;;;;28.85;14.18;;;;;;;;;;5054025;28;20442;-86
2021/10/11 10:15:38;;;;;;;31.40;14.32;;;;;;;;;;5052726;28;20028;-87
2021/10/11 10:18:04;;;;;;;32.35;14.57;;;;;;;;;;5041273;28;20025;-82
2021/10/11 10:20:30;;;;;;;31.05;14.50;;;;;;;;;;5040145;28;20025;-85
2021/10/11 10:22:56;;;;;;;30.73;14.90;;;;;;;;;;5054628;28;20127;-86
2021/10/11 10:25:23;;;;;;;32.25;15.25;;;;;;;;;;5038371;28;20025;-86
2021/10/11 10:27:51;;;;;;;31.45;17.52;;;;;;;;;;5039448;28;20430;-86
2021/10/11 10:30:24;;;;;;;33.08;14.50;;;;;;;;;;5039035;28;20032;-85
2021/10/11 10:32:56;;;;;;;31.60;13.95;;;;;;;;;;5049545;28;20021;-85
2021/10/11 10:35:22;;;;;;;30.05;14.88;;;;;;;;;;5045367;28;20029;-84
2021/10/11 10:37:49;;;;;;;31.90;14.85;;;;;;;;;;5046148;28;20550;-84
2021/10/11 10:40:21;;;;;;;30.13;14.52;;;;;;;;;;5033643;28;20029;-84
2021/10/11 10:42:47;;;;;;;33.20;15.50;;;;;;;;;;5047231;28;20029;-83
2021/10/11 10:45:15;;;;;;;32.38;15.30;;;;;;;;;;5050973;28;20454;-83
2021/10/11 10:47:41;;;;;;;36.83;16.48;;;;;;;;;;5053511;28;20025;-84
2021/10/11 10:50:13;;;;;;;30.92;15.50;;;;;;;;;;5031117;28;20119;-85
2021/10/11 10:52:40;;;;;;;34.83;16.05;;;;;;;;;;5049323;28;20045;-85
2021/10/11 10:55:08;;;;;;;32.63;16.08;;;;;;;;;;5031995;28;20036;-85
2021/10/11 10:57:34;;;;;;;30.98;16.23;;;;;;;;;;5033632;28;20021;-87
2021/10/11 11:00:02;;;;;;;34.97;15.80;;;;;;;;;;5029990;28;20033;-85
2021/10/11 11:02:29;;;;;;;37.47;15.30;;;;;;;;;;5037690;28;20577;-86
2021/10/11 11:05:00;;;;;;;39.70;16.42;;;;;;;;;;5052788;28;20059;-87
2021/10/11 11:07:31;;;;;;;;;;;11.00;99.90;;;;;;5028470;28;20056;-86
2021/10/11 11:09:57;;;;;;;79.88;21.20;;;;;;;;;;5050336;28;19927;-86
2021/10/11 11:12:28;;;;;;;85.18;22.67;;;;;;;;;;5039577;28;20071;-83
2021/10/11 11:14:54;;;;;;;44.33;18.75;;;;;;;;;;5042602;28;20021;-87
2021/10/11 11:17:34;;;;;;;43.17;18.20;;;;;;;;;;5045879;28;20087;-86
2021/10/11 11:20:00;;;;;;;44.90;19.30;;;;;;;;;;5032673;28;20047;-86
2021/10/11 11:22:33;;;;;;;45.92;19.75;;;11.60;99.90;;;;;;5033589;28;20036;-86
2021/10/11 11:25:06;;;;;;;43.33;17.80;;;;;;;;;;5053152;28;20062;-84
2021/10/11 11:27:38;;;;;;;41.67;18.55;;;;;;;;;;5039451;28;20055;-86
2021/10/11 11:30:08;;;;;;;45.72;17.92;;;;;;;;;;5036236;28;20033;-87
2021/10/11 11:32:48;;;;;;;37.40;17.75;;;11.80;99.90;;;;;;5042483;28;20025;-84
2021/10/11 11:35:32;;;;;;;34.17;16.35;;;11.90;99.90;;;;;;5034705;28;20059;-85
2021/10/11 11:38:00;;;;;;;36.63;18.55;;;11.80;99.90;;;;;;5049271;28;20040;-84
2021/10/11 11:40:29;;;;;;;36.25;17.35;;;11.70;99.90;;;;;;5034036;28;20021;-86
2021/10/11 11:42:56;;;;;;;34.63;16.42;;;;;;;;;;5035298;28;20494;-86
2021/10/11 11:45:22;;;;;;;36.10;17.65;;;;;;;;;;5047203;28;20033;-84
2021/10/11 11:47:49;;;;;;;35.47;16.67;;;;;;;;;;5042802;28;20033;-85
2021/10/11 11:50:24;;;;;;;32.28;16.70;;;12.40;99.90;;;;;;5036235;28;20073;-89
2021/10/11 11:53:13;;;;;;;33.17;16.05;;;12.40;99.90;;;;;;5031711;28;20352;-84
2021/10/11 11:55:40;;;;;;;35.33;16.15;;;;;;;;;;5050270;28;20031;-84
2021/10/11 11:58:13;;;;;;;36.83;16.80;;;;;;;;;;5032236;28;20044;-87
2021/10/11 12:00:39;;;;;;;35.35;17.92;;;;;;;;;;5036046;28;20462;-86
2021/10/11 12:03:05;;;;;;;33.15;17.45;;;13.20;99.90;;;;;;5053135;28;20069;-87
2021/10/11 12:05:31;;;;;;;31.45;16.75;;;;;;;;;;5028605;28;20029;-84
2021/10/11 12:07:57;;;;;;;35.20;16.15;;;;;;;;;;5038762;28;20409;-88
2021/10/11 12:10:25;;;;;;;34.35;16.88;;;13.60;99.90;;;;;;5047125;28;20021;-81
2021/10/11 12:13:03;;;;;;;36.63;16.40;;;14.10;99.90;;;;;;5029841;28;20029;-86
2021/10/11 12:15:30;;;;;;;27.85;16.38;;;13.90;99.90;;;;;;5037343;28;20025;-86
2021/10/11 12:18:22;;;;;;;31.42;15.85;;;14.00;99.90;;;;;;5031377;28;20706;-87
2021/10/11 12:20:50;;;;;;;27.30;14.73;;;14.00;99.90;;;;;;5049831;28;20060;-84
2021/10/11 12:23:17;;;;;;;29.67;15.80;;;14.10;99.90;;;;;;5033609;28;20033;-86
2021/10/11 12:25:44;;;;;;;33.45;15.68;;;;;;;;;;5030495;28;20057;-84
2021/10/11 12:28:14;;;;;;;28.77;15.95;;;14.30;99.90;;;;;;5032530;28;20032;-84
2021/10/11 12:30:41;;;;;;;29.85;15.82;;;14.40;99.90;;;;;;5048205;28;20040;-83
2021/10/11 12:33:13;;;;;;;31.73;15.93;;;;;;;;;;5029175;28;20029;-87
2021/10/11 12:35:39;;;;;;;34.72;16.00;;;;;;;;;;5037735;28;20017;-87
2021/10/11 12:38:07;;;;;;;30.05;16.10;;;14.50;99.90;;;;;;5054555;28;20500;-85
2021/10/11 12:40:33;;;;;;;31.25;15.63;;;;;;;;;;5029624;28;20108;-87
2021/10/11 12:43:00;;;;;;;28.63;14.80;;;;;;;;;;5033667;28;20029;-85
2021/10/11 12:45:26;;;;;;;34.72;16.30;;;;;;;;;;5028828;28;20025;-85
2021/10/11 12:48:02;;;;;;;28.33;15.82;;;;;;;;;;5052007;28;20056;-87
2021/10/11 12:50:28;;;;;;;29.95;15.55;;;;;;;;;;5036814;28;20390;-85
2021/10/11 12:52:54;;;;;;;30.70;15.80;;;;;;;;;;5033172;28;20025;-86
2021/10/11 12:55:22;;;;;;;30.80;15.70;;;14.40;99.90;;;;;;5039420;28;20018;-85
2021/10/11 12:57:50;;;;;;;32.10;14.30;;;;;;;;;;5053876;28;20411;-87
2021/10/11 13:00:17;;;;;;;33.10;15.23;;;;;;;;;;5040679;28;20097;-88
2021/10/11 13:02:43;;;;;;;33.63;15.32;;;;;;;;;;5041926;28;20025;-86
2021/10/11 13:05:10;;;;;;;30.55;15.30;;;;;;;;;;5038807;28;20024;-86
2021/10/11 13:07:37;;;;;;;27.67;14.63;;;;;;;;;;5035971;28;20055;-88
2021/10/11 13:10:04;;;;;;;29.15;15.73;;;14.00;99.90;;;;;;5037286;28;20408;-88
2021/10/11 13:12:30;;;;;;;27.45;15.23;;;;;;;;;;5052861;28;20108;-82
2021/10/11 13:14:57;;;;;;;28.80;15.00;;;;;;;;;;5034697;28;20065;-83
2021/10/11 13:17:23;;;;;;;33.17;15.93;;;;;;;;;;5038020;28;20109;-84
2021/10/11 13:19:52;;;;;;;31.35;15.98;;;;;;;;;;5050030;28;20021;-84
2021/10/11 13:22:18;;;;;;;32.17;15.98;;;;;;;;;;5034184;28;20493;-83
2021/10/11 13:24:44;;;;;;;36.95;16.70;;;;;;;;;;5031519;28;21632;-83
2021/10/11 13:27:10;;;;;;;29.83;15.52;;;;;;;;;;5036180;28;20040;-86
2021/10/11 14:28:45;;;;;;;23.77;13.68;;;;;;;;;;5053952;28;20496;-84
2021/10/11 14:32:20;;;;;;;25.40;12.38;;;;;;;;;;5051459;28;20863;-87
2021/10/11 15:59:16;;;;;;;24.77;14.98;;;;;;;;;;5048271;28;20029;-85
2021/10/11 16:04:08;;;;;;;27.42;15.40;;;;;;;;;;5055144;28;20037;-87
2021/10/11 16:06:35;;;;;;;27.67;15.18;;;;;;;;;;5034129;28;20017;-85
2021/10/11 16:09:02;;;;;;;28.75;15.43;;;;;;;;;;5040724;28;20037;-88
2021/10/11 16:11:28;;;;;;;28.67;15.90;;;;;;;;;;5030915;28;20030;-85
2021/10/11 16:13:54;;;;;;;29.25;16.02;;;;;;;;;;5040428;28;20061;-86
2021/10/11 16:16:20;;;;;;;29.60;16.15;;;;;;;;;;5034292;28;20040;-85
2021/10/11 16:18:46;;;;;;;30.48;15.13;;;;;;;;;;5034545;28;20364;-87
2021/10/11 16:21:12;;;;;;;27.50;16.38;;;;;;;;;;5052123;28;20029;-84
2021/10/11 16:23:39;;;;;;;25.80;15.50;;;;;;;;;;5032921;28;20029;-87
2021/10/11 16:26:07;;;;;;;29.35;15.57;;;;;;;;;;5046110;28;20031;-87
2021/10/11 16:28:33;;;;;;;23.85;15.45;;;;;;;;;;5030266;28;20038;-86
2021/10/11 16:30:59;;;;;;;30.38;16.88;;;;;;;;;;5033016;28;20039;-86
2021/10/11 16:33:25;;;;;;;26.25;14.70;;;;;;;;;;5032492;28;20043;-86
2021/10/11 16:35:54;;;;;;;25.98;15.70;;;;;;;;;;5033226;28;20034;-86
2021/10/11 16:38:20;;;;;;;28.85;17.00;;;;;;;;;;5053673;28;20029;-86
2021/10/11 16:40:46;;;;;;;26.58;15.63;;;;;;;;;;5034128;28;20057;-86
2021/10/11 16:43:12;;;;;;;25.80;15.15;;;;;;;;;;5037031;28;20025;-85